Time;durP1;ratioP1;P1;durP2;ratioP2;P2;SDS_P1;SDS_P2;PMS_P1;PMS_P2;Temp;Humidity;BMP_temperature;BMP_pressure;BME280_temperature;BME280_humidity;BME280_pressure;Samples;Min_cycle;Max_cycle;Signal;HPM_P1;HPM_P2
2023/02/18 00:01:21;;;;;;;29.20;16.93;;;11.30;99.90;;;;;;5031006;28;20575;-61
2023/02/18 00:03:48;;;;;;;29.37;16.60;;;11.20;99.90;;;;;;5038276;28;20273;-60
2023/02/18 00:06:20;;;;;;;28.90;16.57;;;11.30;99.90;;;;;;5030749;28;20251;-60
2023/02/18 00:08:47;;;;;;;29.57;16.67;;;11.30;99.90;;;;;;5036512;28;20206;-60
2023/02/18 00:11:16;;;;;;;32.67;17.57;;;11.30;99.90;;;;;;5036182;28;20235;-61
2023/02/18 00:13:47;;;;;;;31.87;16.00;;;11.30;99.90;;;;;;5033809;28;20312;-61
2023/02/18 00:16:14;;;;;;;31.57;16.70;;;11.30;99.90;;;;;;5036788;28;20217;-61
2023/02/18 00:18:41;;;;;;;26.20;16.67;;;11.20;99.90;;;;;;5037156;28;20565;-63
2023/02/18 00:21:08;;;;;;;32.20;17.37;;;11.30;99.90;;;;;;5039088;28;20292;-60
2023/02/18 00:23:35;;;;;;;30.93;15.83;;;11.20;99.90;;;;;;5038343;28;20208;-60
2023/02/18 00:26:08;;;;;;;28.57;16.90;;;11.30;99.90;;;;;;5036635;28;20263;-60
2023/02/18 00:28:36;;;;;;;29.40;15.80;;;11.20;99.90;;;;;;5036577;28;20206;-61
2023/02/18 00:31:11;;;;;;;28.47;15.97;;;11.30;99.90;;;;;;5037243;28;20326;-61
2023/02/18 00:33:38;;;;;;;29.60;15.60;;;11.20;99.90;;;;;;5033583;28;20235;-61
2023/02/18 00:36:08;;;;;;;29.23;16.03;;;11.20;99.90;;;;;;5037999;28;20699;-60
2023/02/18 00:38:35;;;;;;;25.80;15.43;;;11.20;99.90;;;;;;5033779;28;20198;-61
2023/02/18 00:41:03;;;;;;;28.80;16.27;;;11.20;99.90;;;;;;5037410;28;20668;-60
2023/02/18 00:43:30;;;;;;;28.23;14.90;;;11.30;99.90;;;;;;5039444;28;20212;-61
2023/02/18 00:45:56;;;;;;;24.50;14.37;;;11.20;99.90;;;;;;5037453;28;20762;-60
2023/02/18 00:48:23;;;;;;;29.57;16.63;;;11.30;99.90;;;;;;5032376;28;20301;-61
2023/02/18 00:50:50;;;;;;;28.13;14.97;;;11.30;99.90;;;;;;5034400;28;20211;-60
2023/02/18 00:53:17;;;;;;;27.47;15.27;;;11.30;99.90;;;;;;5033032;28;20223;-63
2023/02/18 00:55:46;;;;;;;33.70;16.00;;;11.30;99.90;;;;;;5037056;28;20662;-63
2023/02/18 00:58:14;;;;;;;30.43;16.20;;;11.30;99.90;;;;;;5037179;28;20285;-63
2023/02/18 01:00:41;;;;;;;26.57;15.60;;;11.40;99.90;;;;;;5034048;28;20267;-63
2023/02/18 01:03:09;;;;;;;30.43;15.47;;;11.40;99.90;;;;;;5032770;28;20200;-63
2023/02/18 01:05:37;;;;;;;30.77;15.40;;;11.30;99.90;;;;;;5033152;28;20222;-63
2023/02/18 01:08:05;;;;;;;27.60;15.30;;;11.30;99.90;;;;;;5030453;28;20207;-62
2023/02/18 01:10:32;;;;;;;27.37;14.60;;;11.30;99.90;;;;;;5034351;28;20217;-63
2023/02/18 01:13:00;;;;;;;30.63;16.63;;;11.30;99.90;;;;;;5037556;28;20657;-63
2023/02/18 01:15:26;;;;;;;27.63;14.73;;;11.30;99.90;;;;;;5035698;28;20226;-63
2023/02/18 01:17:53;;;;;;;24.97;14.23;;;11.40;99.90;;;;;;5034664;28;20241;-63
2023/02/18 01:20:20;;;;;;;22.80;13.97;;;11.40;99.90;;;;;;5038723;28;20225;-63
2023/02/18 01:22:47;;;;;;;28.73;15.73;;;11.30;99.90;;;;;;5040206;28;20586;-63
2023/02/18 01:25:14;;;;;;;25.33;13.80;;;11.40;99.90;;;;;;5038012;28;20297;-62
2023/02/18 01:27:41;;;;;;;25.57;14.67;;;11.40;99.90;;;;;;5033002;28;20670;-63
2023/02/18 01:30:12;;;;;;;28.13;15.13;;;11.30;99.90;;;;;;5036083;28;20659;-63
2023/02/18 01:32:39;;;;;;;27.60;14.73;;;11.30;99.90;;;;;;5036145;28;20325;-63
2023/02/18 01:35:07;;;;;;;24.10;14.53;;;11.40;99.90;;;;;;5037518;28;20202;-63
2023/02/18 01:37:33;;;;;;;28.40;15.80;;;11.30;99.90;;;;;;5034166;28;20854;-62
2023/02/18 01:40:00;;;;;;;25.67;15.67;;;11.30;99.90;;;;;;5030018;28;20294;-63
2023/02/18 01:42:28;;;;;;;26.97;15.63;;;11.30;99.90;;;;;;5033591;28;20560;-63
2023/02/18 01:45:33;;;;;;;27.93;16.13;;;11.40;99.90;;;;;;5029488;28;20222;-62
2023/02/18 01:48:18;;;;;;;29.73;15.57;;;11.30;99.90;;;;;;5031502;28;20801;-63
2023/02/18 01:50:52;;;;;;;22.87;13.77;;;11.30;99.90;;;;;;5032412;28;20569;-62
2023/02/18 01:53:30;;;;;;;25.60;14.93;;;11.30;99.90;;;;;;5030485;28;20612;-62
2023/02/18 01:55:59;;;;;;;28.57;14.83;;;11.30;99.90;;;;;;5032018;28;20288;-63
2023/02/18 01:58:26;;;;;;;28.67;16.37;;;11.30;99.90;;;;;;5029327;28;20286;-67
2023/02/18 02:00:52;;;;;;;27.50;15.83;;;11.40;99.90;;;;;;5035183;28;20197;-63
2023/02/18 02:03:19;;;;;;;24.67;14.77;;;11.40;99.90;;;;;;5037425;28;20602;-65
2023/02/18 02:05:46;;;;;;;26.00;15.87;;;11.40;99.90;;;;;;5036212;28;20207;-63
2023/02/18 02:08:13;;;;;;;29.83;16.23;;;11.30;99.90;;;;;;5033440;28;20210;-63
2023/02/18 02:10:58;;;;;;;31.63;17.27;;;11.40;99.90;;;;;;5033393;28;20208;-63
2023/02/18 02:13:34;;;;;;;25.60;16.63;;;11.40;99.90;;;;;;5037595;28;20221;-63
2023/02/18 02:16:27;;;;;;;33.33;18.10;;;11.40;99.90;;;;;;5042620;28;20294;-63
2023/02/18 02:19:33;;;;;;;35.57;18.00;;;11.40;99.90;;;;;;5036197;28;20196;-63
2023/02/18 02:22:17;;;;;;;34.87;19.27;;;11.40;99.90;;;;;;5032487;28;20798;-62
2023/02/18 02:24:57;;;;;;;30.57;18.60;;;11.40;99.90;;;;;;5037316;28;20277;-63
2023/02/18 02:27:34;;;;;;;34.60;18.57;;;11.40;99.90;;;;;;5034280;28;20780;-63
2023/02/18 02:30:39;;;;;;;38.17;20.20;;;11.30;99.90;;;;;;5030061;28;20646;-63
2023/02/18 02:33:23;;;;;;;38.90;20.73;;;11.30;99.90;;;;;;5031522;28;20912;-63
2023/02/18 02:35:57;;;;;;;41.70;18.97;;;11.20;99.90;;;;;;5030104;28;20299;-63
2023/02/18 02:38:38;;;;;;;39.90;20.70;;;11.20;99.90;;;;;;5029431;28;20639;-63
2023/02/18 02:41:44;;;;;;;42.33;20.47;;;11.20;99.90;;;;;;5028495;28;20204;-63
2023/02/18 02:44:20;;;;;;;44.43;20.77;;;11.20;99.90;;;;;;5030704;28;20705;-63
2023/02/18 02:46:52;;;;;;;39.73;19.60;;;11.20;99.90;;;;;;5030246;28;20208;-63
2023/02/18 02:49:41;;;;;;;40.77;21.13;;;11.20;99.90;;;;;;5025463;28;20250;-62
2023/02/18 02:52:16;;;;;;;41.10;19.37;;;11.10;99.90;;;;;;5031370;28;20205;-63
2023/02/18 02:54:42;;;;;;;39.37;19.27;;;11.10;99.90;;;;;;5027800;28;20589;-63
2023/02/18 02:57:12;;;;;;;39.20;20.43;;;11.00;99.90;;;;;;5028722;28;20200;-63
2023/02/18 02:59:44;;;;;;;41.70;21.17;;;11.00;99.90;;;;;;5026817;28;20288;-63
2023/02/18 03:02:24;;;;;;;40.87;20.57;;;11.00;99.90;;;;;;5032722;28;20294;-64
2023/02/18 03:05:02;;;;;;;37.33;19.70;;;11.00;99.90;;;;;;5028692;28;20207;-63
2023/02/18 03:07:40;;;;;;;37.13;20.63;;;10.90;99.90;;;;;;5027637;28;20200;-64
2023/02/18 03:10:15;;;;;;;36.10;19.63;;;10.90;99.90;;;;;;5029489;28;20204;-63
2023/02/18 03:13:20;;;;;;;37.23;19.37;;;10.90;99.90;;;;;;5029073;28;20326;-63
2023/02/18 03:15:54;;;;;;;35.97;17.67;;;10.80;99.90;;;;;;5028116;28;20266;-63
2023/02/18 03:18:24;;;;;;;32.97;16.30;;;10.80;99.90;;;;;;5028482;28;20235;-63
2023/02/18 03:20:59;;;;;;;29.93;16.13;;;10.80;99.90;;;;;;5034945;28;20588;-63
2023/02/18 03:23:34;;;;;;;30.10;14.63;;;10.80;99.90;;;;;;5034158;28;20289;-63
2023/02/18 03:26:03;;;;;;;26.13;13.80;;;10.80;99.90;;;;;;5027521;28;20205;-66
2023/02/18 03:28:31;;;;;;;27.90;14.67;;;10.70;99.90;;;;;;5027131;28;20290;-63
2023/02/18 03:31:02;;;;;;;26.10;14.10;;;10.70;99.90;;;;;;5026203;28;20928;-63
2023/02/18 03:33:43;;;;;;;23.97;12.40;;;10.70;99.90;;;;;;5031153;28;20679;-63
2023/02/18 03:36:11;;;;;;;21.03;11.43;;;10.70;99.90;;;;;;5030732;28;20579;-63
2023/02/18 03:39:01;;;;;;;19.67;10.67;;;10.70;99.90;;;;;;5033639;28;20230;-63
2023/02/18 03:41:29;;;;;;;20.23;9.80;;;10.70;99.90;;;;;;5032016;28;20210;-63
2023/02/18 03:44:07;;;;;;;19.97;10.97;;;10.70;99.90;;;;;;5033232;28;20208;-63
2023/02/18 03:46:35;;;;;;;17.43;9.30;;;10.70;99.90;;;;;;5032056;28;20283;-63
2023/02/18 03:49:03;;;;;;;18.97;9.73;;;10.70;99.90;;;;;;5035414;28;20236;-63
2023/02/18 03:51:30;;;;;;;17.37;8.70;;;10.70;99.90;;;;;;5033557;28;20192;-63
2023/02/18 03:53:57;;;;;;;15.87;8.90;;;10.70;99.90;;;;;;5034349;28;20295;-63
2023/02/18 03:56:24;;;;;;;17.77;9.03;;;10.70;99.90;;;;;;5033429;28;20590;-63
2023/02/18 03:58:51;;;;;;;14.13;8.23;;;10.60;99.90;;;;;;5034946;28;20235;-63
2023/02/18 04:01:18;;;;;;;13.10;8.10;;;10.60;99.90;;;;;;5037401;28;20236;-63
2023/02/18 04:03:44;;;;;;;15.63;7.73;;;10.60;99.90;;;;;;5039797;28;20416;-63
2023/02/18 04:06:11;;;;;;;13.37;7.03;;;10.60;99.90;;;;;;5038781;28;20236;-64
2023/02/18 04:08:38;;;;;;;14.93;7.23;;;10.60;99.90;;;;;;5038191;28;20663;-62
2023/02/18 04:11:05;;;;;;;9.43;5.97;;;10.60;99.90;;;;;;5037601;28;20299;-63
2023/02/18 04:13:32;;;;;;;12.60;6.33;;;10.60;99.90;;;;;;5039749;28;20535;-63
2023/02/18 04:15:59;;;;;;;11.57;6.67;;;10.60;99.90;;;;;;5036769;28;20235;-62
2023/02/18 04:18:25;;;;;;;12.47;6.83;;;10.60;99.90;;;;;;5033093;28;20763;-63
2023/02/18 04:20:52;;;;;;;9.90;6.10;;;10.60;99.90;;;;;;5033130;28;20337;-63
2023/02/18 04:23:19;;;;;;;9.73;6.03;;;10.60;99.90;;;;;;5038633;28;20284;-63
2023/02/18 04:25:46;;;;;;;10.10;5.73;;;10.60;99.90;;;;;;5032190;28;20294;-63
2023/02/18 04:28:14;;;;;;;10.80;6.17;;;10.60;99.90;;;;;;5038285;28;20203;-62
2023/02/18 04:30:42;;;;;;;11.80;5.70;;;10.60;99.90;;;;;;5037915;28;20216;-64
2023/02/18 04:33:09;;;;;;;9.13;5.77;;;10.60;99.90;;;;;;5037358;28;20220;-62
2023/02/18 04:35:36;;;;;;;9.90;5.67;;;10.60;99.90;;;;;;5031115;28;20204;-62
2023/02/18 04:38:03;;;;;;;12.27;6.87;;;10.60;99.90;;;;;;5033652;28;20197;-63
2023/02/18 04:40:30;;;;;;;9.87;5.63;;;10.60;99.90;;;;;;5032525;28;20286;-62
2023/02/18 04:42:57;;;;;;;10.43;6.50;;;10.60;99.90;;;;;;5037702;28;20199;-63
2023/02/18 04:45:25;;;;;;;10.23;6.53;;;10.60;99.90;;;;;;5038097;28;20302;-62
2023/02/18 04:47:52;;;;;;;11.80;6.60;;;10.60;99.90;;;;;;5036584;28;20205;-62
2023/02/18 04:50:20;;;;;;;11.73;6.97;;;10.60;99.90;;;;;;5038763;28;20196;-63
2023/02/18 04:52:46;;;;;;;12.40;6.10;;;10.60;99.90;;;;;;5037539;28;20207;-62
2023/02/18 04:55:13;;;;;;;10.10;6.33;;;10.60;99.90;;;;;;5037379;28;20290;-63
2023/02/18 04:57:40;;;;;;;10.00;6.47;;;10.70;99.90;;;;;;5036848;28;20246;-63
2023/02/18 05:00:12;;;;;;;10.07;6.73;;;10.60;99.90;;;;;;5037156;28;20656;-63
2023/02/18 05:02:38;;;;;;;10.93;6.73;;;10.60;99.90;;;;;;5034318;28;20304;-63
2023/02/18 05:05:06;;;;;;;10.90;6.77;;;10.70;99.90;;;;;;5034239;28;20542;-62
2023/02/18 05:07:32;;;;;;;12.93;6.80;;;10.60;99.90;;;;;;5037174;28;20289;-63
2023/02/18 05:09:59;;;;;;;11.53;6.80;;;10.60;99.90;;;;;;5036645;28;20621;-62
2023/02/18 05:12:26;;;;;;;12.10;6.23;;;10.60;99.90;;;;;;5038250;28;20205;-63
2023/02/18 05:14:53;;;;;;;9.77;6.97;;;10.60;99.90;;;;;;5038255;28;20677;-62
2023/02/18 05:17:20;;;;;;;10.37;6.50;;;10.60;99.90;;;;;;5035643;28;20712;-63
2023/02/18 05:19:46;;;;;;;9.90;6.13;;;10.60;99.90;;;;;;5035433;28;20209;-63
2023/02/18 05:22:13;;;;;;;9.57;6.43;;;10.60;99.90;;;;;;5033086;28;20867;-63
2023/02/18 05:24:40;;;;;;;10.83;6.37;;;10.60;99.90;;;;;;5037460;28;20208;-62
2023/02/18 05:27:07;;;;;;;10.63;6.47;;;10.50;99.90;;;;;;5033029;28;20240;-63
2023/02/18 05:29:34;;;;;;;8.50;5.63;;;10.60;99.90;;;;;;5034087;28;20210;-62
2023/02/18 05:32:01;;;;;;;9.67;5.53;;;10.60;99.90;;;;;;5036845;28;20256;-63
2023/02/18 05:34:27;;;;;;;9.43;5.50;;;10.60;99.90;;;;;;5037549;28;20230;-63
2023/02/18 05:36:54;;;;;;;8.93;5.47;;;10.60;99.90;;;;;;5036323;28;20235;-62
2023/02/18 05:39:21;;;;;;;8.47;5.23;;;10.60;99.90;;;;;;5036342;28;20207;-63
2023/02/18 05:41:48;;;;;;;10.43;5.47;;;10.60;99.90;;;;;;5036941;28;20645;-62
2023/02/18 05:44:32;;;;;;;10.00;5.67;;;10.60;99.90;;;;;;5045579;28;20587;-63
2023/02/18 05:47:02;;;;;;;7.97;5.50;;;10.60;99.90;;;;;;5032490;28;20597;-63
2023/02/18 05:49:30;;;;;;;9.43;5.70;;;10.60;99.90;;;;;;5036781;28;20635;-62
2023/02/18 05:51:57;;;;;;;8.00;5.17;;;10.60;99.90;;;;;;5036920;28;20204;-62
2023/02/18 05:54:25;;;;;;;7.83;5.17;;;10.50;99.90;;;;;;5034458;28;20611;-62
2023/02/18 05:56:52;;;;;;;8.23;5.30;;;10.50;99.90;;;;;;5028293;28;20639;-64
2023/02/18 05:59:20;;;;;;;8.90;5.23;;;10.50;99.90;;;;;;5031028;28;20289;-63
2023/02/18 06:01:47;;;;;;;9.50;5.23;;;10.60;99.90;;;;;;5042083;28;20236;-63
2023/02/18 06:04:14;;;;;;;8.03;4.93;;;10.60;99.90;;;;;;5037611;28;20215;-63
2023/02/18 06:06:42;;;;;;;6.73;4.63;;;10.50;99.90;;;;;;5030402;28;20220;-63
2023/02/18 06:09:09;;;;;;;6.97;4.80;;;10.50;99.90;;;;;;5032253;28;20258;-63
2023/02/18 06:11:36;;;;;;;6.67;3.93;;;10.50;99.90;;;;;;5035739;28;20200;-62
2023/02/18 06:14:03;;;;;;;6.03;4.33;;;10.50;99.90;;;;;;5038886;28;20263;-63
2023/02/18 06:16:30;;;;;;;6.37;3.90;;;10.50;99.90;;;;;;5034533;28;20628;-60
2023/02/18 06:18:57;;;;;;;6.20;4.30;;;10.50;99.90;;;;;;5035711;28;20556;-60
2023/02/18 06:21:24;;;;;;;8.13;4.80;;;10.50;99.90;;;;;;5034327;28;20546;-60
2023/02/18 06:23:51;;;;;;;6.40;3.97;;;10.50;99.90;;;;;;5038479;28;20303;-61
2023/02/18 06:26:18;;;;;;;5.10;3.50;;;10.50;99.90;;;;;;5034818;28;20286;-60
2023/02/18 06:28:45;;;;;;;5.47;3.63;;;10.50;99.90;;;;;;5036863;28;20232;-60
2023/02/18 06:31:12;;;;;;;6.33;3.50;;;10.50;99.90;;;;;;5034161;28;20273;-60
2023/02/18 06:33:39;;;;;;;5.27;3.33;;;10.50;99.90;;;;;;5032562;28;20217;-62
2023/02/18 06:36:07;;;;;;;4.37;3.23;;;10.50;99.90;;;;;;5035119;28;20232;-62
2023/02/18 06:38:35;;;;;;;5.63;3.90;;;10.50;99.90;;;;;;5030828;28;20200;-60
2023/02/18 06:41:03;;;;;;;6.07;3.53;;;10.50;99.90;;;;;;5036508;28;20211;-60
2023/02/18 06:43:29;;;;;;;5.50;3.27;;;10.50;99.90;;;;;;5037368;28;20206;-60
2023/02/18 06:45:57;;;;;;;4.77;3.43;;;10.50;99.90;;;;;;5036675;28;20323;-62
2023/02/18 06:48:24;;;;;;;5.83;3.67;;;10.40;99.90;;;;;;5038745;28;20295;-60
2023/02/18 06:50:51;;;;;;;5.10;2.80;;;10.40;99.90;;;;;;5039786;28;20317;-60
2023/02/18 06:53:17;;;;;;;4.87;2.90;;;10.40;99.90;;;;;;5037148;28;20222;-60
2023/02/18 06:55:45;;;;;;;4.20;2.80;;;10.40;99.90;;;;;;5039080;28;20232;-60
2023/02/18 06:58:13;;;;;;;6.13;3.60;;;10.40;99.90;;;;;;5036723;28;20675;-60
2023/02/18 07:00:41;;;;;;;6.60;3.30;;;10.40;99.90;;;;;;5032568;28;20233;-60
2023/02/18 07:03:09;;;;;;;5.03;3.50;;;10.30;99.90;;;;;;5038216;28;20253;-61
2023/02/18 07:05:36;;;;;;;4.93;3.20;;;10.30;99.90;;;;;;5039625;28;20539;-60
2023/02/18 07:08:03;;;;;;;4.20;3.00;;;10.20;99.90;;;;;;5032910;28;20643;-60
2023/02/18 07:10:30;;;;;;;7.70;3.10;;;10.30;99.90;;;;;;5037974;28;20246;-64
2023/02/18 07:12:57;;;;;;;3.97;3.40;;;10.30;99.90;;;;;;5035081;28;20223;-60
2023/02/18 07:15:25;;;;;;;4.53;3.10;;;10.20;99.90;;;;;;5029030;28;20687;-60
2023/02/18 07:17:52;;;;;;;4.37;2.73;;;10.20;99.90;;;;;;5028979;28;20287;-60
2023/02/18 07:20:20;;;;;;;5.53;3.30;;;10.30;99.90;;;;;;4677379;28;9999906;-64
2023/02/18 07:22:47;;;;;;;5.33;3.07;;;10.20;99.90;;;;;;5020580;28;20246;-61
2023/02/18 07:25:14;;;;;;;5.30;3.13;;;10.20;99.90;;;;;;5021881;28;20302;-64
2023/02/18 07:27:41;;;;;;;7.90;3.67;;;10.10;99.90;;;;;;5021126;28;22613;-63
2023/02/18 07:30:09;;;;;;;7.00;4.20;;;10.20;99.90;;;;;;5025125;28;20291;-64
2023/02/18 07:32:36;;;;;;;13.50;4.97;;;10.20;99.90;;;;;;5023331;28;20889;-60
2023/02/18 07:35:04;;;;;;;9.90;5.27;;;10.10;99.90;;;;;;5027011;28;20335;-61
2023/02/18 07:37:31;;;;;;;9.40;6.03;;;10.20;99.90;;;;;;5031239;28;20643;-59
2023/02/18 07:39:58;;;;;;;12.90;6.33;;;10.20;99.90;;;;;;5021604;28;20683;-60
2023/02/18 07:42:25;;;;;;;16.17;6.50;;;10.10;99.90;;;;;;5021531;28;20287;-60
2023/02/18 07:44:52;;;;;;;14.33;6.07;;;10.10;99.90;;;;;;5026955;28;20308;-59
2023/02/18 07:47:18;;;;;;;11.80;7.37;;;10.10;99.90;;;;;;5024921;28;20208;-60
2023/02/18 07:49:46;;;;;;;11.87;5.73;;;10.10;99.90;;;;;;5028581;28;20233;-60
2023/02/18 07:52:14;;;;;;;14.23;7.00;;;10.10;99.90;;;;;;5035920;28;20720;-59
2023/02/18 07:54:41;;;;;;;11.87;6.27;;;10.10;99.90;;;;;;5031717;28;20220;-60
2023/02/18 07:57:08;;;;;;;15.13;6.00;;;10.10;99.90;;;;;;5031003;28;20613;-59
2023/02/18 07:59:35;;;;;;;13.77;6.30;;;10.20;99.90;;;;;;5030880;28;20205;-59
2023/02/18 08:02:04;;;;;;;10.27;6.17;;;10.20;99.90;;;;;;5029086;28;20718;-60
2023/02/18 08:04:31;;;;;;;14.80;5.43;;;10.20;99.90;;;;;;5030372;28;20215;-63
2023/02/18 08:06:58;;;;;;;14.47;6.07;;;10.20;99.90;;;;;;5028809;28;20208;-59
2023/02/18 08:09:24;;;;;;;13.67;5.57;;;10.20;99.90;;;;;;5029113;28;20205;-60
2023/02/18 08:11:51;;;;;;;13.97;6.00;;;10.30;99.90;;;;;;4680357;28;10000008;-63
2023/02/18 08:14:18;;;;;;;11.90;5.73;;;10.30;99.90;;;;;;5026067;28;20889;-61
2023/02/18 08:16:45;;;;;;;14.30;5.60;;;10.30;99.90;;;;;;5028743;28;20292;-60
2023/02/18 08:19:12;;;;;;;17.87;5.73;;;10.30;99.90;;;;;;5027413;28;20724;-59
2023/02/18 08:21:38;;;;;;;12.73;5.30;;;10.30;99.90;;;;;;5024299;28;20385;-60
2023/02/18 08:24:06;;;;;;;8.33;4.03;;;10.30;99.90;;;;;;5026520;28;20487;-67
2023/02/18 08:26:34;;;;;;;12.80;5.40;;;10.30;99.90;;;;;;5026413;28;20675;-61
2023/02/18 08:29:01;;;;;;;8.87;4.67;;;10.30;99.90;;;;;;5023128;28;20206;-60
2023/02/18 08:31:29;;;;;;;9.73;4.60;;;10.30;99.90;;;;;;5026298;28;20205;-60
2023/02/18 08:33:58;;;;;;;15.00;4.60;;;10.30;99.90;;;;;;5027254;28;20238;-60
2023/02/18 08:36:25;;;;;;;12.60;4.60;;;10.30;99.90;;;;;;5030736;28;20443;-61
2023/02/18 08:38:52;;;;;;;16.97;5.07;;;10.30;99.90;;;;;;5032804;28;20679;-61
2023/02/18 08:41:19;;;;;;;14.60;4.27;;;10.30;99.90;;;;;;5026639;28;20547;-60
2023/02/18 08:43:47;;;;;;;8.00;3.67;;;10.40;99.90;;;;;;5026662;28;20831;-60
2023/02/18 08:46:15;;;;;;;4.43;3.10;;;10.30;99.90;;;;;;5027751;28;20204;-60
2023/02/18 08:49:01;;;;;;;9.50;4.00;;;10.40;99.90;;;;;;5026655;28;20222;-64
2023/02/18 08:51:28;;;;;;;9.90;3.57;;;10.30;99.90;;;;;;5028473;28;20278;-58
2023/02/18 08:53:55;;;;;;;13.50;4.33;;;10.30;99.90;;;;;;5033267;28;20703;-61
2023/02/18 08:56:22;;;;;;;10.80;4.10;;;10.30;99.90;;;;;;5028016;28;20301;-64
2023/02/18 08:58:49;;;;;;;10.03;3.30;;;10.30;99.90;;;;;;5036238;28;20207;-60
2023/02/18 09:01:16;;;;;;;13.37;3.80;;;10.20;99.90;;;;;;5034333;28;20234;-61
2023/02/18 09:03:43;;;;;;;12.43;3.30;;;10.20;99.90;;;;;;5032884;28;20256;-62
2023/02/18 09:06:09;;;;;;;9.07;3.50;;;10.10;99.90;;;;;;5029307;28;20286;-61
2023/02/18 09:08:36;;;;;;;9.17;2.90;;;10.10;99.90;;;;;;5033302;28;20231;-61
2023/02/18 09:11:04;;;;;;;9.60;3.00;;;10.10;99.90;;;;;;5031897;28;20656;-60
2023/02/18 09:13:32;;;;;;;9.47;2.93;;;10.10;99.90;;;;;;5037023;28;20642;-60
2023/02/18 09:16:05;;;;;;;13.27;3.03;;;10.10;99.90;;;;;;5051654;28;20255;-60
2023/02/18 09:18:34;;;;;;;7.57;2.87;;;10.10;99.90;;;;;;5036544;28;20293;-61
2023/02/18 09:21:02;;;;;;;14.03;3.90;;;10.20;99.90;;;;;;5034737;28;20260;-60
2023/02/18 09:23:30;;;;;;;11.33;3.13;;;10.10;99.90;;;;;;5036360;28;20237;-61
2023/02/18 09:25:58;;;;;;;10.40;3.17;;;10.20;99.90;;;;;;5036630;28;20613;-60
2023/02/18 09:28:25;;;;;;;10.43;3.20;;;10.20;99.90;;;;;;5035416;28;20231;-63
2023/02/18 09:30:52;;;;;;;9.73;2.93;;;10.20;99.90;;;;;;5036108;28;20637;-61
2023/02/18 09:33:19;;;;;;;7.50;2.97;;;10.20;99.90;;;;;;5036381;28;20220;-60
2023/02/18 09:35:47;;;;;;;7.10;3.37;;;10.20;99.90;;;;;;5033694;28;20279;-61
2023/02/18 09:38:16;;;;;;;8.80;2.83;;;10.20;99.90;;;;;;5035109;28;20221;-60
2023/02/18 09:40:47;;;;;;;6.53;2.50;;;10.30;99.90;;;;;;5036344;28;20265;-61
2023/02/18 09:43:23;;;;;;;7.20;2.57;;;10.30;99.90;;;;;;5031626;28;20290;-59
2023/02/18 09:45:52;;;;;;;10.67;2.40;;;10.30;99.90;;;;;;5036222;28;20242;-60
2023/02/18 09:48:25;;;;;;;9.30;2.70;;;10.40;99.90;;;;;;5034159;28;20238;-60
2023/02/18 09:50:53;;;;;;;5.60;2.20;;;10.30;99.90;;;;;;5033726;28;20814;-60
2023/02/18 09:53:22;;;;;;;11.20;3.07;;;10.30;99.90;;;;;;5034563;28;20281;-61
2023/02/18 09:55:52;;;;;;;4.80;1.93;;;10.30;99.90;;;;;;5035354;28;20307;-60
2023/02/18 09:58:29;;;;;;;7.13;2.20;;;10.40;99.90;;;;;;5035463;28;20189;-61
2023/02/18 10:01:13;;;;;;;12.53;2.57;;;10.40;99.90;;;;;;5034377;28;20213;-60
2023/02/18 10:03:42;;;;;;;10.10;1.90;;;10.40;99.90;;;;;;5036076;28;20204;-60
2023/02/18 10:06:16;;;;;;;8.03;2.07;;;10.40;99.90;;;;;;5032559;28;20211;-60
2023/02/18 10:08:49;;;;;;;8.27;2.17;;;10.40;99.90;;;;;;5036599;28;20212;-60
2023/02/18 10:11:29;;;;;;;8.53;2.70;;;10.50;99.90;;;;;;5035812;28;20276;-60
2023/02/18 10:13:59;;;;;;;9.67;2.53;;;10.50;99.90;;;;;;5044526;28;20232;-60
2023/02/18 10:16:27;;;;;;;5.73;2.47;;;10.50;99.90;;;;;;5035426;28;20715;-61
2023/02/18 10:18:57;;;;;;;11.53;2.67;;;10.50;99.90;;;;;;5034851;28;20204;-60
2023/02/18 10:21:27;;;;;;;6.87;2.30;;;10.50;99.90;;;;;;5034758;28;20217;-62
2023/02/18 10:24:15;;;;;;;5.73;2.20;;;10.60;99.90;;;;;;5041457;28;20200;-61
2023/02/18 10:26:42;;;;;;;9.93;2.33;;;10.50;99.90;;;;;;5041052;28;20210;-61
2023/02/18 10:29:15;;;;;;;5.67;1.90;;;10.60;99.90;;;;;;5038828;28;20609;-61
2023/02/18 10:32:20;;;;;;;6.67;2.23;;;10.60;99.90;;;;;;5039450;28;20238;-60
2023/02/18 10:34:50;;;;;;;6.43;2.13;;;10.60;99.90;;;;;;5038015;28;20872;-60
2023/02/18 10:38:00;;;;;;;6.87;2.27;;;10.60;99.90;;;;;;5038214;28;20269;-60
2023/02/18 10:40:56;;;;;;;7.07;2.50;;;10.60;99.90;;;;;;5046150;28;20653;-60
2023/02/18 10:43:37;;;;;;;7.23;2.27;;;10.60;99.90;;;;;;5036123;28;20231;-60
2023/02/18 10:46:16;;;;;;;6.20;2.20;;;10.60;99.90;;;;;;5038743;28;20210;-60
2023/02/18 10:48:57;;;;;;;4.20;2.00;;;10.80;99.90;;;;;;5036568;28;20200;-60
2023/02/18 10:51:28;;;;;;;7.50;2.10;;;10.80;99.90;;;;;;5037942;28;20235;-60
2023/02/18 10:53:55;;;;;;;6.37;2.30;;;10.70;99.90;;;;;;5033073;28;20266;-63
2023/02/18 10:56:42;;;;;;;3.50;2.20;;;10.80;99.90;;;;;;5039412;28;20767;-60
2023/02/18 10:59:20;;;;;;;4.90;2.30;;;10.80;99.90;;;;;;5035951;28;20908;-63
2023/02/18 11:02:04;;;;;;;8.97;3.13;;;10.80;99.90;;;;;;5032728;28;20235;-60
2023/02/18 11:04:38;;;;;;;7.20;2.23;;;10.90;99.90;;;;;;5037822;28;20226;-64
2023/02/18 11:07:21;;;;;;;8.77;2.17;;;11.00;99.90;;;;;;5036719;28;20252;-60
2023/02/18 11:09:53;;;;;;;5.00;1.97;;;11.00;99.90;;;;;;5036817;28;20639;-61
2023/02/18 11:12:26;;;;;;;5.50;1.80;;;11.00;99.90;;;;;;5046757;28;20295;-61
2023/02/18 11:15:17;;;;;;;4.57;1.80;;;11.00;99.90;;;;;;5038302;28;20695;-61
2023/02/18 11:17:46;;;;;;;6.70;1.90;;;11.00;99.90;;;;;;5037720;28;20199;-60
2023/02/18 11:20:25;;;;;;;8.27;1.70;;;11.00;99.90;;;;;;5038286;28;20204;-60
2023/02/18 11:23:16;;;;;;;4.73;2.37;;;11.10;99.90;;;;;;5032683;28;20200;-64
2023/02/18 11:26:14;;;;;;;3.87;1.87;;;11.10;99.90;;;;;;5038280;28;20236;-62
2023/02/18 11:28:41;;;;;;;5.10;1.80;;;11.10;99.90;;;;;;5033653;28;20231;-61
2023/02/18 11:31:15;;;;;;;6.27;2.17;;;11.10;99.90;;;;;;5037561;28;20212;-61
2023/02/18 11:33:46;;;;;;;5.90;2.23;;;11.10;99.90;;;;;;5037399;28;20235;-60
2023/02/18 11:36:16;;;;;;;6.73;2.33;;;11.10;99.90;;;;;;5034237;28;20235;-61
2023/02/18 11:38:52;;;;;;;6.50;2.00;;;11.10;99.90;;;;;;5035713;28;20207;-61
2023/02/18 11:41:34;;;;;;;5.43;2.00;;;11.10;99.90;;;;;;5034541;28;20699;-61
2023/02/18 11:44:24;;;;;;;6.20;2.00;;;11.10;99.90;;;;;;5033960;28;20278;-63
2023/02/18 11:47:00;;;;;;;4.40;1.80;;;11.20;99.90;;;;;;5037958;28;20210;-60
2023/02/18 11:49:28;;;;;;;7.03;2.30;;;11.20;99.90;;;;;;5032195;28;20213;-60
2023/02/18 11:52:05;;;;;;;4.07;1.73;;;11.30;99.90;;;;;;5034091;28;20267;-61
2023/02/18 11:54:34;;;;;;;3.33;1.63;;;11.30;99.90;;;;;;5034335;28;20208;-60
2023/02/18 11:57:05;;;;;;;6.03;2.13;;;11.60;99.90;;;;;;5037341;28;20567;-61
2023/02/18 11:59:35;;;;;;;7.40;1.97;;;11.80;99.90;;;;;;5037367;28;20258;-61
2023/02/18 12:02:08;;;;;;;4.57;2.83;;;11.80;99.90;;;;;;5036000;28;20200;-60
2023/02/18 12:04:55;;;;;;;8.03;1.73;;;11.80;99.90;;;;;;5035040;28;20230;-62
2023/02/18 12:07:35;;;;;;;4.43;1.57;;;11.80;99.90;;;;;;5034863;28;20248;-61
2023/02/18 12:10:13;;;;;;;4.90;1.43;;;11.90;99.90;;;;;;5046168;28;20213;-60
2023/02/18 12:13:05;;;;;;;5.60;1.40;;;11.80;99.90;;;;;;5036131;28;20200;-61
2023/02/18 12:16:01;;;;;;;2.80;1.10;;;11.90;99.90;;;;;;5029349;28;20221;-60
2023/02/18 12:18:37;;;;;;;2.63;1.30;;;11.90;99.90;;;;;;5030757;28;20602;-61
2023/02/18 12:21:06;;;;;;;8.33;1.83;;;12.00;99.90;;;;;;5035289;28;20201;-61
2023/02/18 12:24:03;;;;;;;5.53;2.00;;;12.00;99.90;;;;;;5037154;28;20606;-60
2023/02/18 12:26:38;;;;;;;3.80;1.40;;;12.00;99.90;;;;;;5035343;28;20266;-62
2023/02/18 12:29:05;;;;;;;2.70;1.70;;;12.00;99.90;;;;;;5032734;28;20239;-60
2023/02/18 12:31:48;;;;;;;5.90;1.23;;;12.00;99.90;;;;;;5032483;28;20213;-61
2023/02/18 12:34:27;;;;;;;4.13;1.27;;;11.90;99.90;;;;;;5033291;28;20215;-61
2023/02/18 12:37:12;;;;;;;7.57;1.70;;;11.90;99.90;;;;;;5036177;28;20262;-60
2023/02/18 12:39:51;;;;;;;6.33;1.27;;;12.00;99.90;;;;;;5035603;28;20230;-60
2023/02/18 12:42:19;;;;;;;5.67;1.50;;;12.10;99.90;;;;;;5038995;28;20207;-60
2023/02/18 12:45:25;;;;;;;4.57;1.13;;;12.10;99.90;;;;;;5036099;28;20221;-60
2023/02/18 12:48:04;;;;;;;3.73;1.43;;;12.20;99.90;;;;;;5014844;28;20307;-60
2023/02/18 12:50:51;;;;;;;4.00;1.33;;;12.20;99.90;;;;;;5035569;28;20239;-62
2023/02/18 12:53:38;;;;;;;3.57;1.73;;;12.20;99.90;;;;;;5037358;28;20205;-63
2023/02/18 12:56:16;;;;;;;3.00;1.30;;;12.20;99.90;;;;;;5032792;28;20701;-60
2023/02/18 12:59:00;;;;;;;3.50;1.20;;;12.20;99.90;;;;;;5036858;28;20234;-60
2023/02/18 13:01:39;;;;;;;7.97;1.73;;;12.20;99.90;;;;;;5032066;28;20199;-60